Latest Weather Observations for Kyabram

IDV60801

Issued at 8:31 pm EST Monday 31 August 2015 (issued every 30 minutes, with the page automatically refreshed every 10 minutes)

About weather observations | Map of weather stations | Latest weather observations for VIC | Other Formats
Station Details ID: 080091 Name: KYABRAM Lat: -36.34 Lon: 145.06 Height: 105.0 m
Data from the previous 72 hours. | See also: Recent months at Kyabram
Date/Time
EST
Temp
°C
App
Temp
°C
Dew
Point
Rel
Hum
%
Delta-T
°C
Wind Press
QNH
hPa
Press
MSL
hPa
Rain
since 9 am
mm
Dir
 
Spd
km/h
Gust
km/h
Spd
kts
Gust
kts
31/08:00pm 6.1 4.7 3.3 82 1.2 CALM 0 0 0 0 - - 0.0
31/07:30pm 6.8 5.3 3.2 78 1.5 CALM 0 0 0 0 - - 0.0
31/07:00pm 8.0 6.6 3.3 72 2.0 CALM 0 0 0 0 - - 0.0
31/06:30pm 9.4 8.0 3.6 67 2.5 CALM 0 0 0 0 - - 0.0
31/06:00pm 10.1 8.7 3.4 63 2.9 CALM 0 0 0 0 - - 0.0
31/05:30pm 12.1 10.8 3.9 57 3.7 CALM 0 0 0 0 - - 0.0
31/05:00pm 13.5 11.0 3.8 52 4.4 WNW 6 19 3 10 - - 0.0
31/04:30pm 14.2 11.2 3.9 50 4.7 W 9 17 5 9 - - 0.0
31/04:00pm 14.2 10.8 4.2 51 4.6 W 11 19 6 10 - - 0.0
31/03:30pm 14.2 11.2 3.9 50 4.7 WSW 9 17 5 9 - - 0.0
31/03:00pm 14.0 10.7 4.6 53 4.4 WSW 11 17 6 9 - - 0.0
31/02:30pm 13.6 9.9 4.2 53 4.3 SW 13 19 7 10 - - 0.0
31/02:00pm 13.5 9.4 4.4 54 4.2 SW 15 22 8 12 - - 0.0
31/01:30pm 13.1 9.6 3.7 53 4.3 WSW 11 19 6 10 - - 0.0
31/01:00pm 13.0 8.9 4.4 56 3.9 SW 15 26 8 14 - - 0.0
31/12:30pm 12.8 9.7 5.7 62 3.3 SW 11 19 6 10 - - 0.0
31/12:00pm 12.1 8.3 4.1 58 3.6 SW 13 19 7 10 - - 0.0
31/11:30am 11.4 7.9 3.4 58 3.5 SW 11 19 6 10 - - 0.0
31/11:00am 11.1 7.8 4.8 65 2.9 SW 11 24 6 13 - - 0.0
31/10:30am 10.8 7.7 5.6 70 2.4 SSW 11 17 6 9 - - 0.0
31/10:00am 9.3 5.7 4.9 74 2.0 SSW 13 19 7 10 - - 0.0
31/09:30am 8.8 5.4 5.9 82 1.3 SW 13 19 7 10 - - 0.0
31/09:00am 7.6 3.7 5.4 86 1.0 SW 15 20 8 11 - - 0.0
31/08:30am 6.1 3.4 5.8 98 0.1 SW 9 15 5 8 - - 0.0
31/08:00am 4.3 1.3 4.2 99 0.0 SW 9 13 5 7 - - 0.0
31/07:30am 2.8 -0.1 2.7 99 0.0 WSW 7 11 4 6 - - 0.0
31/07:00am 2.0 -1.0 1.9 99 0.0 WSW 7 15 4 8 - - 0.0
31/06:30am 1.5 -1.4 1.4 99 0.0 SW 6 9 3 5 - - 0.0
31/06:00am 1.6 -1.3 1.5 99 0.0 SW 6 9 3 5 - - 0.0
31/05:30am 1.8 -1.2 1.7 99 0.0 WSW 7 9 4 5 - - 0.0
31/05:00am 0.5 -2.2 0.4 99 0.0 WSW 4 7 2 4 - - 0.0
31/04:30am 1.9 -1.1 1.8 99 0.0 SW 7 9 4 5 - - 0.0
31/04:00am 2.1 -0.9 2.0 99 0.0 SW 7 9 4 5 - - 0.0
31/03:30am 1.7 -1.4 1.6 99 0.0 SW 7 13 4 7 - - 0.0
31/03:00am 1.8 -1.1 1.7 99 0.0 SW 6 9 3 5 - - 0.0
31/02:30am 2.4 -0.6 2.3 99 0.0 W 7 9 4 5 - - 0.0
31/02:00am 1.8 -0.7 1.5 98 0.1 W 4 7 2 4 - - 0.0
31/01:30am 3.2 0.4 2.9 98 0.1 SSW 7 9 4 5 - - 0.0
31/01:00am 2.8 -0.1 2.7 99 0.0 SW 7 9 4 5 - - 0.0
31/12:30am 2.3 -0.7 2.2 99 0.0 SW 7 9 4 5 - - 0.0
31/12:00am 3.4 0.8 3.3 99 0.0 SW 6 7 3 4 - - 0.0
 
Date/Time
EST
Temp
°C
App
Temp
°C
Dew
Point
Rel
Hum
%
Delta-T
°C
Wind Press
QNH
hPa
Press
MSL
hPa
Rain
since 9 am
mm
Dir
 
Spd
km/h
Gust
km/h
Spd
kts
Gust
kts
30/11:30pm 3.8 2.0 3.4 97 0.2 WSW 2 7 1 4 - - 0.0
30/11:00pm 4.0 1.1 2.8 92 0.5 SW 7 9 4 5 - - 0.0
30/10:30pm 4.8 1.8 3.9 94 0.4 SW 9 15 5 8 - - 0.0
30/10:00pm 4.8 2.1 3.6 92 0.5 SW 7 11 4 6 - - 0.0
30/09:30pm 5.5 2.4 3.7 88 0.8 SW 9 13 5 7 - - 0.0
30/09:00pm 6.1 3.0 3.6 84 1.1 SW 9 11 5 6 - - 0.0
30/08:30pm 6.7 3.2 3.5 80 1.4 SW 11 13 6 7 - - 0.0
30/08:00pm 7.2 3.7 3.4 77 1.6 SW 11 15 6 8 - - 0.0
30/07:30pm 7.9 4.1 3.8 75 1.8 SW 13 17 7 9 - - 0.0
30/07:00pm 7.6 5.9 4.0 78 1.6 WSW 2 9 1 5 - - 0.0
30/06:30pm 8.5 5.5 4.1 74 1.9 SW 9 11 5 6 - - 0.0
30/06:00pm 9.6 6.7 4.4 70 2.3 SW 9 11 5 6 - - 0.0
30/05:30pm 10.9 7.6 4.6 65 2.9 SSW 11 17 6 9 - - 0.0
30/05:00pm 12.1 8.5 4.8 61 3.4 SSW 13 19 7 10 - - 0.0
30/04:30pm 12.7 8.7 4.9 59 3.6 SSW 15 22 8 12 - - 0.0
30/04:00pm 12.8 8.4 4.8 58 3.7 SW 17 30 9 16 - - 0.0
30/03:30pm 13.1 8.8 5.3 59 3.7 SW 17 24 9 13 - - 0.0
30/03:00pm 13.2 8.6 5.4 59 3.7 SW 19 28 10 15 - - 0.0
30/02:30pm 13.3 8.7 5.5 59 3.7 SW 19 30 10 16 - - 0.0
30/02:00pm 13.4 9.1 5.3 58 3.8 SSW 17 28 9 15 - - 0.0
30/01:30pm 12.4 7.6 5.8 64 3.1 SW 20 28 11 15 - - 0.0
30/01:00pm 12.4 8.6 5.6 63 3.2 SSW 15 20 8 11 - - 0.0
30/12:30pm 13.0 8.4 5.7 61 3.4 SSW 19 28 10 15 - - 0.0
30/12:00pm 12.0 7.4 5.6 65 3.0 SW 19 32 10 17 - - 0.0
30/11:30am 11.9 7.3 5.8 66 2.9 SSW 19 30 10 16 - - 0.0
30/11:00am 12.1 7.9 5.5 64 3.1 SSW 17 28 9 15 - - 0.0
30/10:30am 12.0 7.3 6.1 67 2.8 SSW 20 32 11 17 - - 0.0
30/10:00am 11.4 6.9 6.1 70 2.5 SSW 19 33 10 18 - - 0.0
30/09:30am 11.0 6.6 6.7 75 2.0 SSW 19 30 10 16 - - 0.0
30/09:00am 10.5 6.5 6.5 76 1.9 SSW 17 26 9 14 - - 0.0
30/08:30am 10.1 6.7 7.5 84 1.2 SW 15 22 8 12 - - 0.0
30/08:00am 8.9 6.2 7.2 89 0.8 SW 11 17 6 9 - - 0.0
30/07:30am 7.5 5.1 7.2 98 0.1 SW 9 13 5 7 - - 0.0
30/07:00am 6.6 4.7 6.5 99 0.0 SW 6 9 3 5 - - 0.0
30/06:30am 6.7 4.5 6.3 97 0.2 WSW 7 13 4 7 - - 0.0
30/06:00am 7.5 5.0 6.4 93 0.5 SW 9 15 5 8 - - 0.0
30/05:30am 7.9 5.0 6.5 91 0.6 SW 11 17 6 9 - - 0.0
30/05:00am 7.7 5.1 6.0 89 0.8 SW 9 13 5 7 - - 0.0
30/04:30am 8.1 5.1 6.2 88 0.9 SW 11 17 6 9 - - 0.0
30/04:00am 8.1 5.5 6.2 88 0.9 SW 9 13 5 7 - - 0.0
30/03:30am 8.3 5.0 6.3 87 0.9 SW 13 17 7 9 - - 0.0
30/03:00am 8.2 4.9 6.3 88 0.9 SW 13 19 7 10 - - 0.0
30/02:30am 8.4 5.6 6.9 90 0.7 SW 11 17 6 9 - - 0.0
30/02:00am 8.0 5.6 7.2 95 0.4 SW 9 13 5 7 - - 0.0
30/01:30am 8.5 5.8 7.3 92 0.6 SW 11 17 6 9 - - 0.0
30/01:00am 8.5 5.5 7.6 94 0.4 SW 13 19 7 10 - - 0.0
30/12:30am 8.6 5.1 7.4 92 0.6 SW 15 22 8 12 - - 0.0
30/12:00am 9.0 6.1 6.3 83 1.3 SW 11 19 6 10 - - 0.0
 
Date/Time
EST
Temp
°C
App
Temp
°C
Dew
Point
Rel
Hum
%
Delta-T
°C
Wind Press
QNH
hPa
Press
MSL
hPa
Rain
since 9 am
mm
Dir
 
Spd
km/h
Gust
km/h
Spd
kts
Gust
kts
29/11:30pm 9.0 6.1 6.4 84 1.2 SW 11 17 6 9 - - 0.0
29/11:00pm 9.0 6.8 6.1 82 1.3 WSW 7 9 4 5 - - 0.0
29/10:30pm 9.0 6.8 6.1 82 1.3 SW 7 11 4 6 - - 0.0
29/10:00pm 9.0 6.0 6.1 82 1.3 SW 11 17 6 9 - - 0.0
29/09:30pm 9.0 6.0 6.1 82 1.3 SSW 11 15 6 8 - - 0.0
29/09:00pm 8.9 5.9 5.8 81 1.4 SW 11 19 6 10 - - 0.0
29/08:30pm 9.2 7.0 6.3 82 1.3 SSW 7 11 4 6 - - 0.0
29/08:00pm 9.1 8.3 6.5 84 1.2 CALM 0 0 0 0 - - 0.0
29/07:30pm 9.0 6.7 5.7 80 1.5 SSW 7 9 4 5 - - 0.0
29/07:00pm 9.9 6.8 5.5 74 2.0 SSW 11 15 6 8 - - 0.0
29/06:30pm 9.9 7.5 5.3 73 2.1 SW 7 11 4 6 - - 0.0
29/06:00pm 10.2 7.9 5.6 73 2.1 WSW 7 11 4 6 - - 0.0
29/05:30pm 10.6 8.2 5.4 70 2.4 WSW 7 13 4 7 - - 0.0
29/05:00pm 10.9 8.1 5.2 68 2.6 SW 9 13 5 7 - - 0.0
29/04:30pm 11.0 7.8 5.1 67 2.7 SSW 11 19 6 10 - - 0.0
29/04:00pm 11.1 7.8 4.6 64 2.9 SW 11 19 6 10 - - 0.0
29/03:30pm 10.8 6.8 4.7 66 2.8 SW 15 24 8 13 - - 0.0
29/03:00pm 10.9 6.4 4.4 64 2.9 SW 17 26 9 14 - - 0.0
29/02:30pm 10.7 5.7 3.7 62 3.1 SSW 19 26 10 14 - - 0.0
29/02:00pm 11.5 7.0 4.3 61 3.3 SSW 17 28 9 15 - - 0.0
29/01:30pm 11.5 6.4 4.0 60 3.4 SSW 20 28 11 15 - - 0.0
29/01:00pm 11.1 5.8 2.9 57 3.6 S 20 33 11 18 - - 0.0
29/12:30pm 12.0 7.0 3.5 56 3.8 S 19 37 10 20 - - 0.0
29/12:00pm 11.5 6.7 2.8 55 3.8 SSW 17 32 9 17 - - 0.0
29/11:30am 11.7 7.5 3.7 58 3.6 SW 15 24 8 13 - - 0.0
29/11:00am 10.0 5.5 2.4 59 3.2 SW 15 24 8 13 - - 0.0
29/10:30am 9.6 4.2 2.5 61 3.0 S 20 32 11 17 - - 0.0
29/10:00am 9.2 5.0 4.0 70 2.3 SSW 15 26 8 14 - - 0.0
29/09:30am 8.0 4.3 4.2 77 1.7 SW 13 20 7 11 - - 0.0
29/09:00am 6.9 3.5 4.0 82 1.2 SW 11 20 6 11 - - 0.0
29/08:30am 5.5 2.4 3.8 89 0.7 SW 9 15 5 8 - - 0.0
29/08:00am 3.3 -0.4 2.4 94 0.4 SW 11 19 6 10 - - 0.0
29/07:30am 1.6 -1.9 1.0 96 0.2 WSW 9 15 5 8 - - 0.0
29/07:00am 0.7 -2.4 0.1 96 0.2 SW 6 9 3 5 - - 0.0
29/06:30am 0.9 -2.4 0.2 95 0.3 WSW 7 9 4 5 - - 0.0
29/06:00am 1.0 -2.3 0.1 94 0.3 WSW 7 13 4 7 - - 0.0
29/05:30am 1.1 -2.1 0.7 97 0.1 SW 7 13 4 7 - - 0.0
29/05:00am 0.8 -1.5 0.5 98 0.1 WSW 2 9 1 5 - - 0.0
29/04:30am 1.6 -1.4 0.9 95 0.3 WSW 6 7 3 4 - - 0.0
29/04:00am 2.1 -1.0 1.1 93 0.4 SW 7 11 4 6 - - 0.0
29/03:30am 2.3 -1.2 1.1 92 0.5 SW 9 13 5 7 - - 0.0
29/03:00am 2.7 -0.8 1.5 92 0.5 SW 9 13 5 7 - - 0.0
29/02:30am 3.0 -0.5 1.5 90 0.6 SW 9 11 5 6 - - 0.0
29/02:00am 3.5 -0.2 2.2 91 0.5 SW 11 13 6 7 - - 0.0
29/01:30am 4.1 1.2 2.6 90 0.6 WSW 7 13 4 7 - - 0.0
29/01:00am 4.8 1.5 2.5 85 0.9 SW 9 13 5 7 - - 0.0
29/12:30am 5.8 2.1 2.6 80 1.3 SSW 11 17 6 9 - - 0.0
29/12:00am 7.1 2.8 3.2 76 1.7 SSW 15 22 8 12 - - 0.0
 
Date/Time
EST
Temp
°C
App
Temp
°C
Dew
Point
Rel
Hum
%
Delta-T
°C
Wind Press
QNH
hPa
Press
MSL
hPa
Rain
since 9 am
mm
Dir
 
Spd
km/h
Gust
km/h
Spd
kts
Gust
kts
28/11:30pm 7.1 2.8 3.2 76 1.7 SSW 15 19 8 10 - - 0.0
28/11:00pm 7.9 4.0 3.4 73 1.9 SSW 13 20 7 11 - - 0.0
28/10:30pm 8.0 4.5 3.7 74 1.9 SSW 11 19 6 10 - - 0.0
28/10:00pm 8.2 4.1 4.6 78 1.6 SSW 15 24 8 13 - - 0.0
28/09:30pm 7.8 4.5 6.3 90 0.7 SSW 13 19 7 10 - - 0.0
28/09:00pm 7.1 4.0 5.7 91 0.6 SSW 11 13 6 7 - - 0.0

Other Formats:

Comma delimited format used in spreadsheet applications
http://www.bom.gov.au/fwo/IDV60801/IDV60801.95833.axf

JavaScript Object Notation format (JSON) in row-major order
http://www.bom.gov.au/fwo/IDV60801/IDV60801.95833.json